Time;durP1;ratioP1;P1;durP2;ratioP2;P2;SDS_P1;SDS_P2;PMS_P1;PMS_P2;Temp;Humidity;BMP_temperature;BMP_pressure;BME280_temperature;BME280_humidity;BME280_pressure;Samples;Min_cycle;Max_cycle;Signal;HPM_P1;HPM_P2
2022/06/12 00:00:14;;;;;;;6.80;1.20;;;16.10;99.90;;;;;;4180568;28;20175;-94
2022/06/12 00:02:14;;;;;;;6.95;1.20;;;16.10;99.90;;;;;;4164160;28;20169;-94
2022/06/12 00:04:15;;;;;;;4.90;0.98;;;16.10;99.90;;;;;;4163578;28;20262;-93
2022/06/12 00:06:17;;;;;;;4.72;0.90;;;16.10;99.90;;;;;;4163741;28;20638;-93
2022/06/12 00:08:20;;;;;;;3.90;0.75;;;16.10;99.90;;;;;;4163826;28;20188;-94
2022/06/12 00:10:21;;;;;;;3.92;0.98;;;16.10;99.90;;;;;;4163784;28;20714;-92
2022/06/12 00:12:22;;;;;;;3.30;1.10;;;16.00;99.90;;;;;;4180474;28;20179;-94
2022/06/12 00:14:23;;;;;;;6.55;1.33;;;16.10;99.90;;;;;;4163618;28;20298;-93
2022/06/12 00:16:24;;;;;;;6.60;1.10;;;16.00;99.90;;;;;;4164114;28;20183;-93
2022/06/12 00:18:26;;;;;;;6.80;1.17;;;16.00;99.90;;;;;;4163593;28;20203;-94
2022/06/12 00:20:28;;;;;;;4.22;0.90;;;16.00;99.90;;;;;;4164707;28;20168;-92
2022/06/12 00:22:29;;;;;;;5.95;1.40;;;15.90;99.90;;;;;;4167333;28;20200;-93
2022/06/12 00:24:29;;;;;;;9.90;0.90;;;15.90;99.90;;;;;;4183559;28;20189;-93
2022/06/12 00:26:33;;;;;;;7.95;1.05;;;15.90;99.90;;;;;;4183914;28;20179;-94
2022/06/12 00:28:35;;;;;;;7.50;1.23;;;15.80;99.90;;;;;;4166760;28;20271;-93
2022/06/12 00:30:36;;;;;;;9.98;1.33;;;15.70;99.90;;;;;;4182993;28;20179;-93
2022/06/12 00:32:38;;;;;;;4.90;1.00;;;15.70;99.90;;;;;;4167146;28;20591;-93
2022/06/12 00:34:49;;;;;;;5.85;1.00;;;15.70;99.90;;;;;;4167109;28;20212;-92
2022/06/12 00:36:49;;;;;;;7.05;0.90;;;15.60;99.90;;;;;;4167346;28;20211;-94
2022/06/12 00:38:50;;;;;;;4.30;0.95;;;15.60;99.90;;;;;;4183520;28;20229;-93
2022/06/12 00:40:51;;;;;;;5.45;1.05;;;15.60;99.90;;;;;;4166744;28;20207;-94
2022/06/12 00:42:56;;;;;;;7.97;1.10;;;15.50;99.90;;;;;;4183152;28;20240;-93
2022/06/12 00:45:01;;;;;;;7.40;1.02;;;15.60;99.90;;;;;;4167202;28;20195;-93
2022/06/12 00:47:04;;;;;;;8.20;1.05;;;15.60;99.90;;;;;;4166749;28;20218;-95
2022/06/12 00:49:18;;;;;;;6.50;1.23;;;15.50;99.90;;;;;;4166871;28;20279;-94
2022/06/12 00:51:20;;;;;;;5.55;1.25;;;15.40;99.90;;;;;;4166939;28;20190;-94
2022/06/12 00:53:25;;;;;;;4.93;1.30;;;15.30;99.90;;;;;;4166526;28;20188;-92
2022/06/12 00:55:45;;;;;;;4.10;0.85;;;15.30;99.90;;;;;;4166523;28;20577;-94
2022/06/12 00:57:46;;;;;;;3.22;1.20;;;15.30;99.90;;;;;;4166935;28;20180;-93
2022/06/12 00:59:55;;;;;;;7.53;1.20;;;15.20;99.90;;;;;;4166896;28;20180;-95
2022/06/12 01:01:56;;;;;;;7.97;1.10;;;15.10;99.90;;;;;;4183005;28;20178;-94
2022/06/12 01:06:34;;;;;;;9.90;1.25;;;15.00;99.90;;;;;;4182891;28;20218;-94
2022/06/12 01:08:35;;;;;;;7.53;1.20;;;15.00;99.90;;;;;;4183021;28;20184;-92
2022/06/12 01:10:41;;;;;;;7.75;1.10;;;15.00;99.90;;;;;;4166857;28;20687;-94
2022/06/12 01:12:48;;;;;;;9.00;1.30;;;14.90;99.90;;;;;;4166311;28;20660;-92
2022/06/12 01:14:57;;;;;;;9.60;1.25;;;15.00;99.90;;;;;;4166473;28;20212;-94
2022/06/12 01:17:00;;;;;;;5.55;0.95;;;15.00;99.90;;;;;;4166574;28;20183;-93
2022/06/12 01:19:03;;;;;;;7.63;1.20;;;14.90;99.90;;;;;;4166058;28;20184;-93
2022/06/12 01:21:28;;;;;;;8.30;1.20;;;14.90;99.90;;;;;;4182652;28;20179;-91
2022/06/12 01:23:49;;;;;;;7.05;1.50;;;15.00;99.90;;;;;;4166133;28;20179;-94
2022/06/12 01:26:24;;;;;;;6.15;1.23;;;14.90;99.90;;;;;;4166218;28;20259;-93
2022/06/12 01:28:55;;;;;;;5.43;1.23;;;15.00;99.90;;;;;;4166166;28;20223;-94
2022/06/12 01:31:00;;;;;;;13.13;1.40;;;15.00;99.90;;;;;;4166162;28;20184;-93
2022/06/12 01:33:16;;;;;;;8.32;1.15;;;14.90;99.90;;;;;;4181868;28;20173;-95
2022/06/12 01:35:26;;;;;;;11.30;1.05;;;14.90;99.90;;;;;;4166040;28;20660;-93
2022/06/12 01:37:27;;;;;;;8.00;1.60;;;14.90;99.90;;;;;;4166003;28;20164;-93
2022/06/12 01:39:30;;;;;;;10.82;1.45;;;14.90;99.90;;;;;;4165887;28;20204;-93
2022/06/12 01:41:59;;;;;;;7.40;1.20;;;14.90;99.90;;;;;;4165536;28;20232;-92
2022/06/12 01:44:18;;;;;;;12.15;1.25;;;14.80;99.90;;;;;;4165836;28;20176;-94
2022/06/12 01:46:24;;;;;;;9.20;1.10;;;14.70;99.90;;;;;;4166150;28;20176;-94
2022/06/12 01:48:47;;;;;;;5.68;1.20;;;14.70;99.90;;;;;;4165442;28;20765;-94
2022/06/12 01:51:09;;;;;;;7.18;1.00;;;14.70;99.90;;;;;;4182454;28;20213;-94
2022/06/12 01:53:31;;;;;;;6.68;1.27;;;14.70;99.90;;;;;;4166070;28;20660;-94
2022/06/12 01:55:51;;;;;;;9.00;1.20;;;14.70;99.90;;;;;;4165882;28;20255;-94
2022/06/12 01:58:02;;;;;;;5.05;1.08;;;14.70;99.90;;;;;;4165918;28;20192;-93
2022/06/12 02:00:09;;;;;;;7.55;1.25;;;14.70;99.90;;;;;;4165377;28;20179;-92
2022/06/12 02:02:17;;;;;;;8.23;1.52;;;14.70;99.90;;;;;;4166117;28;20182;-93
2022/06/12 02:04:46;;;;;;;6.70;1.30;;;14.80;99.90;;;;;;4165414;28;20313;-94
2022/06/12 02:07:10;;;;;;;7.47;1.10;;;14.80;99.90;;;;;;4165832;28;20172;-93
2022/06/12 02:09:18;;;;;;;6.13;1.33;;;14.70;99.90;;;;;;4181628;28;20278;-93
2022/06/12 02:13:52;;;;;;;10.40;1.38;;;14.70;99.90;;;;;;4181678;28;20187;-92
2022/06/12 02:16:05;;;;;;;11.48;1.63;;;14.60;99.90;;;;;;4165056;28;20196;-92
2022/06/12 02:18:19;;;;;;;13.93;1.42;;;14.70;99.90;;;;;;4165370;28;20295;-94
2022/06/12 02:20:25;;;;;;;8.40;1.15;;;14.70;99.90;;;;;;4165393;28;20246;-93
2022/06/12 02:22:28;;;;;;;8.80;1.17;;;14.60;99.90;;;;;;4165450;28;20478;-94
2022/06/12 02:24:43;;;;;;;12.35;1.45;;;14.60;99.90;;;;;;4165012;28;20192;-93
2022/06/12 02:26:46;;;;;;;9.98;1.48;;;14.60;99.90;;;;;;4165056;28;20198;-95
2022/06/12 02:28:52;;;;;;;11.82;1.52;;;14.60;99.90;;;;;;4181309;28;20191;-93
2022/06/12 02:30:57;;;;;;;8.00;1.67;;;14.60;99.90;;;;;;4164918;28;20238;-95
2022/06/12 02:33:11;;;;;;;9.38;1.90;;;14.60;99.90;;;;;;4164837;28;20180;-94
2022/06/12 02:35:20;;;;;;;7.57;1.48;;;14.70;99.90;;;;;;4164949;28;20241;-95
2022/06/12 02:37:45;;;;;;;8.98;1.30;;;14.60;99.90;;;;;;4165336;28;20167;-94
2022/06/12 02:39:52;;;;;;;9.20;1.70;;;14.60;99.90;;;;;;4180698;28;20206;-92
2022/06/12 02:42:24;;;;;;;10.05;1.58;;;14.50;99.90;;;;;;4165076;28;20169;-92
2022/06/12 02:44:31;;;;;;;10.35;1.50;;;14.50;99.90;;;;;;4163583;28;20699;-93
2022/06/12 02:46:50;;;;;;;5.10;1.17;;;14.40;99.90;;;;;;4164852;28;20183;-93
2022/06/12 02:48:51;;;;;;;9.98;1.60;;;14.30;99.90;;;;;;4165452;28;20711;-95
2022/06/12 02:51:02;;;;;;;11.50;1.70;;;14.30;99.90;;;;;;4181886;28;20179;-92
2022/06/12 02:53:22;;;;;;;12.82;1.83;;;14.30;99.90;;;;;;4164814;28;20693;-95
2022/06/12 02:55:38;;;;;;;8.55;1.70;;;14.30;99.90;;;;;;4164615;28;20692;-93
2022/06/12 02:58:09;;;;;;;8.77;1.50;;;14.30;99.90;;;;;;4164599;28;20175;-94
2022/06/12 03:00:16;;;;;;;11.43;1.58;;;14.30;99.90;;;;;;4164568;28;20553;-93
2022/06/12 03:02:28;;;;;;;11.02;1.58;;;14.40;99.90;;;;;;4164589;28;20218;-92
2022/06/12 03:04:37;;;;;;;11.10;1.50;;;14.20;99.90;;;;;;4164800;28;20306;-94
2022/06/12 03:06:40;;;;;;;7.78;1.70;;;14.20;99.90;;;;;;4164838;28;20172;-95
2022/06/12 03:08:43;;;;;;;5.85;1.70;;;14.10;99.90;;;;;;4181350;28;20231;-94
2022/06/12 03:10:49;;;;;;;8.55;1.60;;;14.10;99.90;;;;;;4164535;28;20288;-92
2022/06/12 03:12:50;;;;;;;7.30;1.45;;;14.00;99.90;;;;;;4164588;28;20207;-94
2022/06/12 03:14:52;;;;;;;9.82;2.47;;;13.90;99.90;;;;;;4180878;28;20187;-91
2022/06/12 03:16:53;;;;;;;10.55;1.77;;;13.80;99.90;;;;;;4180695;28;20175;-93
2022/06/12 03:18:59;;;;;;;10.77;1.88;;;13.80;99.90;;;;;;4164183;28;20200;-93
2022/06/12 03:20:59;;;;;;;9.98;1.98;;;13.70;99.90;;;;;;4164798;28;20174;-92
2022/06/12 03:23:12;;;;;;;12.32;1.95;;;13.70;99.90;;;;;;4164633;28;20219;-93
2022/06/12 03:25:30;;;;;;;11.90;2.08;;;13.70;99.90;;;;;;4164374;28;20216;-93
2022/06/12 03:27:53;;;;;;;9.15;1.48;;;13.60;99.90;;;;;;4164326;28;20169;-94
2022/06/12 03:30:19;;;;;;;7.93;1.70;;;13.70;99.90;;;;;;4164372;28;20180;-94
2022/06/12 03:32:38;;;;;;;10.40;1.67;;;13.60;99.90;;;;;;4164282;28;20238;-93
2022/06/12 03:35:02;;;;;;;9.50;2.00;;;13.60;99.90;;;;;;4164121;28;20176;-93
2022/06/12 03:37:08;;;;;;;7.50;1.73;;;13.70;99.90;;;;;;4127992;28;20188;-93
2022/06/12 03:39:28;;;;;;;9.77;1.73;;;13.60;99.90;;;;;;4181074;22;20192;-89
2022/06/12 03:42:15;;;;;;;12.20;1.58;;;13.70;99.90;;;;;;4175954;28;20289;-89
2022/06/12 03:44:23;;;;;;;13.70;1.92;;;13.70;99.90;;;;;;4176297;28;20211;-89
2022/06/12 03:46:32;;;;;;;10.68;2.10;;;13.70;99.90;;;;;;4160208;28;20165;-89
2022/06/12 03:49:14;;;;;;;7.70;1.50;;;13.60;99.90;;;;;;4166466;28;20195;-90
2022/06/12 03:51:45;;;;;;;12.60;2.03;;;13.70;99.90;;;;;;4160588;28;20188;-89
2022/06/12 03:53:48;;;;;;;12.88;2.17;;;13.60;99.90;;;;;;4158529;28;20238;-89
2022/06/12 03:58:53;;;;;;;5.90;1.88;;;13.70;99.90;;;;;;4178516;28;20191;-88
2022/06/12 04:00:58;;;;;;;11.50;2.15;;;13.70;99.90;;;;;;4157870;28;20183;-90
2022/06/12 04:03:35;;;;;;;7.65;1.55;;;13.70;99.90;;;;;;4143976;28;20213;-89
2022/06/12 04:05:43;;;;;;;14.55;1.73;;;13.80;99.90;;;;;;4158683;28;20223;-89
2022/06/12 04:07:49;;;;;;;15.90;2.17;;;13.80;99.90;;;;;;4175590;28;20190;-92
2022/06/12 04:10:07;;;;;;;10.23;1.90;;;13.80;99.90;;;;;;4144290;28;20161;-89
2022/06/12 04:12:33;;;;;;;11.90;1.50;;;13.80;99.90;;;;;;4139313;28;20170;-88
2022/06/12 04:14:45;;;;;;;15.55;2.17;;;13.80;99.90;;;;;;4161937;28;20173;-89
2022/06/12 04:16:51;;;;;;;11.38;2.00;;;13.80;99.90;;;;;;4159364;28;20256;-88
2022/06/12 04:19:14;;;;;;;9.38;1.60;;;13.80;99.90;;;;;;4161397;28;20203;-89
2022/06/12 04:21:55;;;;;;;9.77;1.77;;;13.90;99.90;;;;;;4142190;28;20205;-89
2022/06/12 04:24:32;;;;;;;15.20;2.10;;;13.90;99.90;;;;;;4142070;28;20208;-89
2022/06/12 04:26:39;;;;;;;10.65;1.75;;;14.00;99.90;;;;;;4158424;28;20212;-95
2022/06/12 04:28:44;;;;;;;8.25;1.40;;;14.10;99.90;;;;;;4159776;28;20205;-89
2022/06/12 04:30:45;;;;;;;9.02;1.48;;;14.10;99.90;;;;;;4160181;28;20164;-90
2022/06/12 04:32:47;;;;;;;12.98;2.33;;;14.30;99.90;;;;;;4161535;28;20196;-89
2022/06/12 04:34:53;;;;;;;10.02;1.88;;;14.40;99.90;;;;;;4176215;28;20188;-88
2022/06/12 04:37:19;;;;;;;7.82;1.80;;;14.40;99.90;;;;;;4160611;28;20637;-91
2022/06/12 04:39:25;;;;;;;10.98;2.20;;;14.50;99.90;;;;;;4175585;28;20206;-89
2022/06/12 04:41:29;;;;;;;9.38;2.22;;;14.50;99.90;;;;;;4177567;28;20167;-89
2022/06/12 04:43:30;;;;;;;12.80;2.35;;;14.50;99.90;;;;;;4156127;28;20157;-89
2022/06/12 04:45:31;;;;;;;12.35;2.08;;;14.50;99.90;;;;;;4145957;28;20213;-89
2022/06/12 04:47:32;;;;;;;9.48;1.80;;;14.60;99.90;;;;;;4158927;28;20182;-87
2022/06/12 04:49:36;;;;;;;12.20;2.25;;;14.60;99.90;;;;;;4157823;28;20181;-89
2022/06/12 04:51:37;;;;;;;15.25;2.22;;;14.70;99.90;;;;;;4157839;28;20180;-89
2022/06/12 04:53:47;;;;;;;12.13;2.45;;;14.70;99.90;;;;;;4157141;28;20677;-89
2022/06/12 04:56:08;;;;;;;17.77;2.40;;;14.70;99.90;;;;;;4159009;28;20169;-89
2022/06/12 04:58:17;;;;;;;12.23;2.25;;;14.80;99.90;;;;;;4172473;28;20203;-89
2022/06/12 05:00:18;;;;;;;10.68;1.92;;;14.80;99.90;;;;;;4160248;28;20165;-89
2022/06/12 05:02:19;;;;;;;18.25;2.30;;;14.90;99.90;;;;;;4140770;28;20181;-89
2022/06/12 05:04:38;;;;;;;13.20;2.53;;;15.00;99.90;;;;;;4163694;28;20192;-92
2022/06/12 05:06:56;;;;;;;12.52;2.22;;;15.10;99.90;;;;;;4176042;28;20279;-89
2022/06/12 05:09:13;;;;;;;13.27;2.35;;;15.20;99.90;;;;;;4179597;28;20295;-88
2022/06/12 05:11:16;;;;;;;11.02;2.10;;;15.20;99.90;;;;;;4162375;28;20173;-89
2022/06/12 05:13:16;;;;;;;9.98;1.90;;;15.10;99.90;;;;;;4163134;28;20176;-89
2022/06/12 05:15:17;;;;;;;16.83;2.33;;;15.20;99.90;;;;;;4165696;28;20181;-89
2022/06/12 05:17:22;;;;;;;16.63;2.47;;;15.20;99.90;;;;;;4162849;28;20169;-90
2022/06/12 05:19:35;;;;;;;9.85;2.10;;;15.30;99.90;;;;;;4164810;28;20173;-89
2022/06/12 05:21:39;;;;;;;8.57;2.13;;;15.30;99.90;;;;;;4161956;28;20168;-89
2022/06/12 05:23:40;;;;;;;14.38;2.45;;;15.20;99.90;;;;;;4162261;28;20165;-89
2022/06/12 05:25:42;;;;;;;13.27;2.25;;;15.20;99.90;;;;;;4160206;28;20262;-89
2022/06/12 05:27:54;;;;;;;12.00;2.20;;;15.10;99.90;;;;;;4162024;28;20250;-89
2022/06/12 05:30:10;;;;;;;12.68;2.55;;;15.30;99.90;;;;;;4163208;28;20173;-89
2022/06/12 05:32:15;;;;;;;11.80;2.40;;;15.20;99.90;;;;;;4148422;28;20239;-89
2022/06/12 05:34:25;;;;;;;13.60;2.17;;;15.30;99.90;;;;;;4165379;28;20179;-89
2022/06/12 05:36:29;;;;;;;10.32;2.15;;;15.60;99.90;;;;;;4163008;28;20177;-90
2022/06/12 05:38:30;;;;;;;14.93;2.40;;;15.70;99.90;;;;;;4181250;28;20172;-92
2022/06/12 05:40:38;;;;;;;9.60;2.13;;;16.00;99.90;;;;;;4147250;28;20178;-88
2022/06/12 05:42:39;;;;;;;8.73;2.05;;;16.20;99.90;;;;;;4145700;28;20272;-88
2022/06/12 05:44:40;;;;;;;13.95;2.58;;;16.40;99.90;;;;;;4160170;28;20247;-89
2022/06/12 05:46:41;;;;;;;18.33;2.72;;;16.50;99.90;;;;;;4162150;28;20177;-89
2022/06/12 05:49:09;;;;;;;15.38;2.90;;;16.70;99.90;;;;;;4162743;28;20183;-89
2022/06/12 05:51:13;;;;;;;16.80;2.35;;;16.80;99.90;;;;;;4178689;28;20156;-90
2022/06/12 05:53:15;;;;;;;17.98;2.85;;;17.00;99.90;;;;;;4158724;28;20165;-89
2022/06/12 05:55:16;;;;;;;18.42;2.53;;;17.20;99.90;;;;;;4147041;28;20543;-89
2022/06/12 05:57:17;;;;;;;14.25;2.28;;;17.30;99.90;;;;;;4176902;28;20179;-88
2022/06/12 05:59:18;;;;;;;13.05;3.00;;;17.30;99.90;;;;;;4164403;28;20185;-89
2022/06/12 06:01:20;;;;;;;13.55;2.40;;;17.40;99.90;;;;;;4163369;28;20183;-89
2022/06/12 06:03:29;;;;;;;11.45;2.25;;;17.60;99.90;;;;;;4162857;28;20662;-91
2022/06/12 06:05:37;;;;;;;12.45;2.80;;;17.60;99.90;;;;;;4160076;28;20212;-89
2022/06/12 06:07:58;;;;;;;17.15;2.63;;;17.90;99.90;;;;;;4145601;28;20220;-90
2022/06/12 06:09:59;;;;;;;16.40;3.28;;;18.00;99.90;;;;;;4150670;28;20157;-93
2022/06/12 06:11:59;;;;;;;14.10;2.85;;;17.90;99.90;;;;;;4163921;28;20165;-89
2022/06/12 06:14:01;;;;;;;13.18;3.20;;;17.90;99.90;;;;;;4163257;28;20153;-89
2022/06/12 06:16:02;;;;;;;16.17;2.70;;;18.10;99.90;;;;;;4161051;28;20165;-89
2022/06/12 06:18:04;;;;;;;18.30;3.05;;;18.30;99.90;;;;;;4145250;28;20260;-90
2022/06/12 06:20:07;;;;;;;15.65;2.53;;;18.40;99.90;;;;;;4142005;28;20165;-90
2022/06/12 06:22:15;;;;;;;16.00;2.90;;;18.40;99.90;;;;;;4146390;28;20174;-96
2022/06/12 06:24:31;;;;;;;14.63;2.58;;;18.70;99.90;;;;;;4161164;28;20783;-89
2022/06/12 06:26:32;;;;;;;12.63;2.70;;;18.80;99.90;;;;;;4163287;28;20177;-89
2022/06/12 06:28:34;;;;;;;14.40;2.72;;;18.90;99.90;;;;;;4146051;28;20197;-89
2022/06/12 06:30:36;;;;;;;15.02;2.75;;;18.70;99.90;;;;;;4159771;28;20165;-92
2022/06/12 06:32:37;;;;;;;14.05;2.60;;;18.90;99.90;;;;;;4161701;28;20162;-88
2022/06/12 06:34:39;;;;;;;16.70;2.88;;;18.90;99.90;;;;;;4162184;28;20164;-95
2022/06/12 06:36:40;;;;;;;17.80;3.22;;;18.90;99.90;;;;;;4160277;28;20248;-90
2022/06/12 06:38:45;;;;;;;13.85;3.28;;;19.00;99.90;;;;;;4126586;28;20669;-89
2022/06/12 06:40:53;;;;;;;14.07;2.70;;;19.20;99.90;;;;;;4159179;28;20203;-89
2022/06/12 06:42:54;;;;;;;21.13;3.42;;;19.30;99.90;;;;;;4164302;28;20181;-89
2022/06/12 06:49:16;;;;;;;19.38;3.60;;;19.70;99.90;;;;;;4146606;28;20205;-89
2022/06/12 06:51:17;;;;;;;17.83;3.22;;;19.70;99.90;;;;;;4142222;28;20197;-89
2022/06/12 06:53:19;;;;;;;20.10;3.90;;;19.90;99.90;;;;;;4145256;28;20264;-96
2022/06/12 06:55:20;;;;;;;20.70;3.80;;;20.00;99.90;;;;;;4143097;28;20188;-90
2022/06/12 06:57:21;;;;;;;22.90;4.10;;;20.00;99.90;;;;;;4158693;28;20185;-96
2022/06/12 06:59:24;;;;;;;15.30;3.05;;;20.10;99.90;;;;;;4161555;28;20827;-92
2022/06/12 07:01:24;;;;;;;22.35;3.58;;;20.00;99.90;;;;;;4161201;28;20745;-89
2022/06/12 07:03:25;;;;;;;19.85;3.42;;;19.90;99.90;;;;;;4160889;28;20185;-94
2022/06/12 07:05:26;;;;;;;20.00;3.33;;;19.80;99.90;;;;;;4158326;28;20569;-91
2022/06/12 07:07:30;;;;;;;18.60;3.90;;;19.80;99.90;;;;;;4160533;28;20857;-88
2022/06/12 07:09:31;;;;;;;14.50;3.75;;;19.80;99.90;;;;;;4159471;28;20200;-96
2022/06/12 07:11:34;;;;;;;16.80;3.50;;;19.90;99.90;;;;;;4158440;28;20268;-90
2022/06/12 07:13:34;;;;;;;12.85;3.13;;;20.10;99.90;;;;;;4159912;28;20232;-90
2022/06/12 07:15:36;;;;;;;20.60;4.05;;;21.60;99.90;;;;;;4161373;28;20161;-89
2022/06/12 07:17:37;;;;;;;16.08;2.95;;;23.30;99.90;;;;;;4146550;28;20165;-89
2022/06/12 07:19:38;;;;;;;21.90;3.33;;;24.90;99.90;;;;;;4161912;28;20203;-93
2022/06/12 07:21:39;;;;;;;15.27;3.45;;;26.60;99.90;;;;;;4152401;28;20177;-95
2022/06/12 07:23:47;;;;;;;15.52;3.38;;;27.10;99.90;;;;;;4152473;28;20693;-96
2022/06/12 07:25:53;;;;;;;18.33;3.67;;;25.70;99.90;;;;;;4139382;28;20217;-96
2022/06/12 07:27:54;;;;;;;15.35;3.45;;;25.30;99.90;;;;;;4172015;28;20271;-96
2022/06/12 07:29:55;;;;;;;18.60;3.53;;;25.30;99.90;;;;;;4169693;28;20194;-90
2022/06/12 07:31:55;;;;;;;15.13;2.95;;;25.90;99.90;;;;;;4166051;28;20172;-94
2022/06/12 07:33:56;;;;;;;13.75;3.33;;;26.00;99.90;;;;;;4165209;28;20207;-94
2022/06/12 07:35:58;;;;;;;18.05;3.42;;;27.10;99.90;;;;;;4134976;28;20181;-90
2022/06/12 07:38:00;;;;;;;14.65;3.90;;;27.80;99.90;;;;;;4149795;28;20192;-94
2022/06/12 07:40:01;;;;;;;12.18;3.03;;;27.50;99.90;;;;;;4132349;28;20280;-94
2022/06/12 07:42:02;;;;;;;17.85;3.50;;;28.10;99.90;;;;;;4132362;28;20177;-93
2022/06/12 07:44:04;;;;;;;17.70;4.05;;;28.50;99.90;;;;;;4132630;28;20200;-86
2022/06/12 07:46:07;;;;;;;20.67;3.55;;;28.60;99.90;;;;;;4132453;28;20531;-87
2022/06/12 07:48:08;;;;;;;17.63;3.30;;;27.90;99.90;;;;;;4148597;28;20193;-94
2022/06/12 07:50:10;;;;;;;9.90;3.08;;;28.30;99.90;;;;;;4133145;28;20375;-87
2022/06/12 07:52:12;;;;;;;16.02;3.17;;;29.20;99.90;;;;;;4148573;28;20715;-87
2022/06/12 07:54:13;;;;;;;17.05;3.22;;;29.00;99.90;;;;;;4165145;28;20179;-93
2022/06/12 07:56:15;;;;;;;11.35;3.20;;;30.10;99.90;;;;;;4148134;28;20175;-86
2022/06/12 07:58:16;;;;;;;9.90;2.55;;;30.20;99.90;;;;;;4132329;28;20200;-88
2022/06/12 08:00:18;;;;;;;11.63;3.00;;;28.70;99.90;;;;;;4148423;28;20176;-87
2022/06/12 08:02:19;;;;;;;16.38;3.03;;;28.20;99.90;;;;;;4148606;28;20211;-87
2022/06/12 08:04:22;;;;;;;14.13;2.88;;;28.80;99.90;;;;;;4132138;28;20173;-87
2022/06/12 08:06:24;;;;;;;15.55;3.50;;;27.10;99.90;;;;;;4148629;28;20188;-87
2022/06/12 08:08:26;;;;;;;17.33;3.58;;;27.30;99.90;;;;;;4148395;28;20193;-86
2022/06/12 08:10:27;;;;;;;13.82;3.40;;;26.60;99.90;;;;;;4132236;28;20184;-93
2022/06/12 08:12:27;;;;;;;16.67;3.47;;;27.20;99.90;;;;;;4132095;28;20213;-95
2022/06/12 08:14:29;;;;;;;12.15;2.58;;;28.40;99.90;;;;;;4148146;28;20180;-94
2022/06/12 08:16:29;;;;;;;12.02;2.72;;;28.40;99.90;;;;;;4148292;28;20164;-87
2022/06/12 08:18:30;;;;;;;14.18;2.88;;;27.00;99.90;;;;;;4131968;28;20197;-87
2022/06/12 08:20:35;;;;;;;12.85;2.80;;;27.20;99.90;;;;;;4131745;28;20177;-89
2022/06/12 08:22:36;;;;;;;14.70;2.72;;;27.30;99.90;;;;;;4131907;28;20225;-94
2022/06/12 08:24:37;;;;;;;13.25;2.67;;;27.30;99.90;;;;;;4148192;28;20200;-87
2022/06/12 08:26:38;;;;;;;8.73;2.72;;;28.40;99.90;;;;;;4148277;28;20263;-87
2022/06/12 08:28:42;;;;;;;11.48;2.58;;;28.60;99.90;;;;;;4148094;28;20223;-87
2022/06/12 08:30:43;;;;;;;13.43;2.67;;;27.40;99.90;;;;;;4132117;28;20212;-87
2022/06/12 08:32:46;;;;;;;10.63;2.40;;;28.20;99.90;;;;;;4148163;28;20176;-87
2022/06/12 08:34:52;;;;;;;13.65;2.70;;;28.60;99.90;;;;;;4131925;28;20178;-87
2022/06/12 08:36:56;;;;;;;15.95;3.00;;;28.10;99.90;;;;;;4164296;28;20664;-92
2022/06/12 08:38:57;;;;;;;9.70;2.45;;;28.20;99.90;;;;;;4164293;28;20192;-89
2022/06/12 08:41:24;;;;;;;10.13;2.40;;;28.40;99.90;;;;;;4148265;28;20199;-87
2022/06/12 08:43:40;;;;;;;12.68;2.95;;;29.60;99.90;;;;;;4136126;28;20302;-88
2022/06/12 08:45:45;;;;;;;10.02;2.20;;;30.80;99.90;;;;;;4151493;28;20239;-86
2022/06/12 08:48:04;;;;;;;8.18;2.40;;;30.80;99.90;;;;;;4151452;28;20179;-88
2022/06/12 08:50:36;;;;;;;9.55;2.42;;;31.40;99.90;;;;;;4151567;28;20187;-92
2022/06/12 08:52:51;;;;;;;5.88;1.98;;;31.90;99.90;;;;;;4134941;28;20181;-93
2022/06/12 08:55:03;;;;;;;11.43;2.55;;;31.20;99.90;;;;;;4134650;28;20181;-90
2022/06/12 08:57:18;;;;;;;8.50;2.35;;;30.50;99.90;;;;;;4135001;28;20557;-87
2022/06/12 08:59:40;;;;;;;8.90;2.05;;;29.30;99.90;;;;;;4134733;28;20765;-92
2022/06/12 09:01:42;;;;;;;9.70;2.33;;;27.60;99.90;;;;;;4134735;28;20421;-88
2022/06/12 09:03:54;;;;;;;6.25;1.95;;;27.90;99.90;;;;;;4151037;28;20216;-87
2022/06/12 09:06:07;;;;;;;7.28;1.90;;;28.40;99.90;;;;;;4134549;28;20208;-87
2022/06/12 09:08:26;;;;;;;10.82;2.28;;;27.10;99.90;;;;;;4134484;28;20252;-87
2022/06/12 09:10:41;;;;;;;10.70;2.25;;;27.50;99.90;;;;;;4134658;28;20616;-86
2022/06/12 09:12:57;;;;;;;8.07;2.13;;;27.90;99.90;;;;;;4134684;28;20175;-88
2022/06/12 09:15:04;;;;;;;9.90;2.55;;;28.40;99.90;;;;;;4134609;28;20650;-92
2022/06/12 09:17:43;;;;;;;10.15;2.80;;;28.00;99.90;;;;;;4134676;28;20271;-92
2022/06/12 09:20:00;;;;;;;7.18;2.33;;;28.00;99.90;;;;;;4134251;28;20260;-87
2022/06/12 09:22:09;;;;;;;8.60;1.88;;;27.60;99.90;;;;;;4134284;28;20232;-92
2022/06/12 09:24:21;;;;;;;9.48;2.28;;;28.00;99.90;;;;;;4150602;28;20179;-90
2022/06/12 09:26:49;;;;;;;7.80;2.10;;;27.70;99.90;;;;;;4134719;28;20204;-88
2022/06/12 09:29:32;;;;;;;10.55;2.22;;;27.50;99.90;;;;;;4135270;28;20571;-91
2022/06/12 09:31:56;;;;;;;11.82;1.90;;;28.20;99.90;;;;;;4125285;28;20661;-87
2022/06/12 09:34:21;;;;;;;10.32;1.65;;;28.10;99.90;;;;;;4150544;28;20650;-89
2022/06/12 09:36:44;;;;;;;7.95;2.15;;;28.00;99.90;;;;;;4134247;28;20181;-88
2022/06/12 09:39:13;;;;;;;9.15;2.30;;;26.90;99.90;;;;;;4167270;28;20546;-94
2022/06/12 09:41:34;;;;;;;14.85;2.72;;;25.30;99.90;;;;;;4166916;28;20629;-94
2022/06/12 09:43:43;;;;;;;9.88;2.33;;;25.80;99.90;;;;;;4166735;28;20254;-92
2022/06/12 09:45:59;;;;;;;11.50;2.25;;;25.30;99.90;;;;;;4166794;28;20219;-94
2022/06/12 09:48:18;;;;;;;5.72;1.83;;;25.30;99.90;;;;;;4166496;28;20195;-94
2022/06/12 09:50:34;;;;;;;16.73;2.45;;;26.70;99.90;;;;;;4150074;28;20243;-88
2022/06/12 09:52:59;;;;;;;11.57;2.75;;;27.90;99.90;;;;;;4150190;28;20185;-88
2022/06/12 09:55:20;;;;;;;9.30;2.00;;;28.00;99.90;;;;;;4133990;28;20170;-94
2022/06/12 09:57:33;;;;;;;8.10;2.15;;;28.10;99.90;;;;;;4166464;28;20184;-86
2022/06/12 09:59:42;;;;;;;8.65;2.00;;;28.10;99.90;;;;;;4166543;28;20246;-87
2022/06/12 10:01:47;;;;;;;8.25;1.90;;;27.80;99.90;;;;;;4133743;28;20189;-89
2022/06/12 10:03:55;;;;;;;11.63;2.38;;;26.30;99.90;;;;;;4150164;28;20185;-89
2022/06/12 10:06:25;;;;;;;11.55;2.28;;;25.70;99.90;;;;;;4134685;28;20215;-89
2022/06/12 10:08:49;;;;;;;8.63;1.75;;;25.50;99.90;;;;;;4150264;28;20211;-89
2022/06/12 10:11:19;;;;;;;10.73;2.20;;;25.20;99.90;;;;;;4134069;28;20169;-89
2022/06/12 10:13:31;;;;;;;10.00;2.00;;;24.40;99.90;;;;;;4150039;28;20599;-89
2022/06/12 10:15:38;;;;;;;8.65;2.20;;;24.60;99.90;;;;;;4133583;28;20332;-88
2022/06/12 10:17:47;;;;;;;11.90;2.05;;;24.70;99.90;;;;;;4133604;28;20169;-92
2022/06/12 10:19:56;;;;;;;7.20;2.10;;;25.60;99.90;;;;;;4134888;28;20177;-90
2022/06/12 10:22:04;;;;;;;7.80;1.90;;;26.60;99.90;;;;;;4133589;28;20173;-89
2022/06/12 10:24:05;;;;;;;8.32;1.80;;;27.30;99.90;;;;;;4133838;28;20173;-94
2022/06/12 10:26:23;;;;;;;13.52;2.33;;;27.10;99.90;;;;;;4149720;28;20224;-91
2022/06/12 10:28:28;;;;;;;11.05;2.03;;;26.40;99.90;;;;;;4133330;28;20186;-88
2022/06/12 10:30:42;;;;;;;8.98;1.65;;;25.60;99.90;;;;;;4134603;28;20566;-89
2022/06/12 10:32:52;;;;;;;7.60;1.90;;;25.80;99.90;;;;;;4134499;28;20245;-90
2022/06/12 10:35:04;;;;;;;15.00;2.22;;;26.10;99.90;;;;;;4133918;28;20193;-89
2022/06/12 10:37:28;;;;;;;7.00;1.70;;;26.10;99.90;;;;;;4133407;28;20183;-89
2022/06/12 10:39:29;;;;;;;12.68;2.00;;;25.40;99.90;;;;;;4134107;28;20244;-95
2022/06/12 10:41:30;;;;;;;7.88;2.25;;;25.30;99.90;;;;;;4133471;28;20645;-95
2022/06/12 10:43:38;;;;;;;7.93;1.83;;;25.60;99.90;;;;;;4168253;28;20208;-88
2022/06/12 10:45:40;;;;;;;6.90;2.05;;;25.60;99.90;;;;;;4134528;28;20209;-89
2022/06/12 10:47:45;;;;;;;12.05;2.38;;;25.80;99.90;;;;;;4133620;28;20180;-88
2022/06/12 10:49:47;;;;;;;7.80;1.77;;;26.00;99.90;;;;;;4133163;28;20173;-89
2022/06/12 10:51:49;;;;;;;32.95;3.47;;;25.20;99.90;;;;;;4165693;28;20172;-94
2022/06/12 10:54:09;;;;;;;9.98;2.55;;;24.90;99.90;;;;;;4165905;28;20215;-93
2022/06/12 10:56:22;;;;;;;13.63;2.72;;;24.30;99.90;;;;;;4151297;28;20280;-95
2022/06/12 10:58:47;;;;;;;12.18;2.42;;;24.40;99.90;;;;;;4149209;28;20283;-89
2022/06/12 11:00:50;;;;;;;10.55;2.20;;;24.50;99.90;;;;;;4149013;28;20592;-92
2022/06/12 11:03:20;;;;;;;10.40;2.70;;;24.80;99.90;;;;;;4132892;28;20170;-95
2022/06/12 11:05:45;;;;;;;15.40;2.72;;;24.70;99.90;;;;;;4131800;28;20245;-89
2022/06/12 11:08:04;;;;;;;11.77;2.50;;;24.30;99.90;;;;;;4132605;28;20181;-89
2022/06/12 11:10:15;;;;;;;11.40;2.28;;;23.80;99.90;;;;;;4132983;28;20290;-89
2022/06/12 11:12:56;;;;;;;8.82;2.30;;;23.40;99.90;;;;;;4132836;28;20185;-88
2022/06/12 11:15:21;;;;;;;9.43;2.13;;;23.20;99.90;;;;;;4133421;28;20174;-93
2022/06/12 11:18:19;;;;;;;8.77;2.03;;;23.20;99.90;;;;;;4132962;28;20186;-89
2022/06/12 11:20:28;;;;;;;14.75;2.17;;;23.80;99.90;;;;;;4100127;28;20640;-96